createdAt,value
2023-03-31T00:04:59.900Z,2.90
2023-03-31T00:10:16.836Z,2.90
2023-03-31T00:15:20.795Z,2.90
2023-03-31T00:20:22.822Z,2.90
2023-03-31T00:25:24.606Z,3.00
2023-03-31T00:30:26.545Z,3.00
2023-03-31T00:35:28.490Z,3.00
2023-03-31T00:40:30.229Z,3.00
2023-03-31T00:45:32.053Z,3.00
2023-03-31T00:50:37.714Z,3.00
2023-03-31T00:55:59.189Z,3.10
2023-03-31T01:01:03.404Z,3.10
2023-03-31T01:06:07.254Z,3.10
2023-03-31T01:11:13.100Z,3.20
2023-03-31T01:16:14.886Z,3.20
2023-03-31T01:21:51.199Z,3.20
2023-03-31T01:27:22.202Z,3.10
2023-03-31T01:33:03.520Z,3.00
2023-03-31T01:38:11.839Z,3.10
2023-03-31T01:43:32.288Z,3.10
2023-03-31T01:49:08.120Z,3.10
2023-03-31T01:54:52.301Z,3.10
2023-03-31T02:00:04.224Z,3.10
2023-03-31T02:05:20.261Z,3.10
2023-03-31T02:10:25.245Z,3.10
2023-03-31T02:15:31.340Z,3.10
2023-03-31T02:20:33.791Z,3.10
2023-03-31T02:26:01.180Z,3.00
2023-03-31T02:31:17.221Z,3.00
2023-03-31T02:36:21.495Z,3.00
2023-03-31T02:41:23.847Z,3.00
2023-03-31T02:46:26.726Z,3.00
2023-03-31T02:51:34.285Z,2.90
2023-03-31T02:56:59.547Z,2.90
2023-03-31T03:02:08.922Z,2.80
2023-03-31T03:07:31.538Z,2.80
2023-03-31T03:12:36.283Z,2.80
2023-03-31T03:17:47.487Z,2.90
2023-03-31T03:22:49.595Z,2.90
2023-03-31T03:27:53.975Z,2.90
2023-03-31T03:32:56.118Z,2.80
2023-03-31T03:37:58.104Z,2.90
2023-03-31T03:42:59.867Z,2.90
2023-03-31T03:48:01.852Z,2.90
2023-03-31T03:53:03.670Z,2.90
2023-03-31T03:58:05.816Z,2.90
2023-03-31T04:03:07.792Z,2.90
2023-03-31T04:08:09.709Z,2.80
2023-03-31T04:13:11.910Z,2.90
2023-03-31T04:18:23.440Z,2.80
2023-03-31T04:23:26.711Z,2.90
2023-03-31T04:28:34.844Z,2.90
2023-03-31T04:33:38.797Z,2.90
2023-03-31T04:38:40.555Z,2.90
2023-03-31T04:43:42.648Z,2.90
2023-03-31T04:48:44.447Z,3.00
2023-03-31T04:53:47.064Z,3.00
2023-03-31T04:58:49.113Z,3.00
2023-03-31T05:03:51.127Z,3.00
2023-03-31T05:08:53.037Z,3.10
2023-03-31T05:13:55.070Z,3.10
2023-03-31T05:18:56.812Z,3.20
2023-03-31T05:23:58.684Z,3.20
2023-03-31T05:29:00.613Z,3.20
2023-03-31T05:34:02.323Z,3.30
2023-03-31T05:39:05.349Z,3.30
2023-03-31T05:44:07.264Z,3.30
2023-03-31T05:49:09.025Z,3.30
2023-03-31T05:54:11.002Z,3.40
2023-03-31T05:59:15.018Z,3.40
2023-03-31T06:04:17.035Z,3.50
2023-03-31T06:09:18.822Z,3.50
2023-03-31T06:14:20.584Z,3.60
2023-03-31T06:19:22.393Z,3.70
2023-03-31T06:24:24.194Z,3.80
2023-03-31T06:29:26.069Z,3.90
2023-03-31T06:34:28.099Z,4.00
2023-03-31T06:39:30.127Z,4.00
2023-03-31T06:44:31.868Z,4.10
2023-03-31T06:49:33.738Z,4.20
2023-03-31T06:54:35.728Z,4.30
2023-03-31T06:59:37.716Z,4.50
2023-03-31T07:04:39.428Z,4.50
2023-03-31T07:09:41.277Z,4.60
2023-03-31T07:14:43.013Z,4.50
2023-03-31T07:19:48.053Z,4.80
2023-03-31T07:24:49.882Z,4.90
2023-03-31T07:29:51.574Z,4.70
2023-03-31T07:34:53.443Z,4.60
2023-03-31T07:39:55.240Z,4.70
2023-03-31T07:44:57.941Z,4.80
2023-03-31T07:49:59.748Z,4.70
2023-03-31T07:55:01.532Z,4.70
2023-03-31T08:00:12.723Z,4.70
2023-03-31T08:05:17.739Z,4.60
2023-03-31T08:10:23.659Z,4.70
2023-03-31T08:15:25.552Z,4.60
2023-03-31T08:20:27.415Z,4.70
2023-03-31T08:25:29.349Z,4.70
2023-03-31T08:30:31.340Z,4.80
2023-03-31T08:35:33.691Z,4.80
2023-03-31T08:40:36.108Z,4.90
2023-03-31T08:45:42.236Z,4.90
2023-03-31T08:50:51.663Z,5.10
2023-03-31T08:55:56.045Z,5.40
2023-03-31T09:01:18.370Z,5.90
2023-03-31T09:06:32.589Z,5.70
2023-03-31T09:11:45.557Z,5.70
2023-03-31T09:16:53.104Z,6.10
2023-03-31T09:21:56.510Z,6.20
2023-03-31T09:27:08.614Z,6.30
2023-03-31T09:32:18.547Z,6.10
2023-03-31T09:37:20.840Z,6.10
2023-03-31T09:42:22.707Z,6.10
2023-03-31T09:47:51.467Z,5.90
2023-03-31T09:52:56.677Z,5.80
2023-03-31T09:58:01.776Z,6.00
2023-03-31T10:03:08.557Z,5.90
2023-03-31T10:08:22.555Z,6.00
2023-03-31T10:13:35.332Z,6.20
2023-03-31T10:18:39.636Z,6.10
2023-03-31T10:23:47.716Z,5.90
2023-03-31T10:28:55.501Z,6.00
2023-03-31T10:33:58.562Z,5.90
2023-03-31T10:39:04.701Z,6.10
2023-03-31T10:44:06.461Z,6.20
2023-03-31T10:49:25.885Z,6.10
2023-03-31T10:54:27.816Z,6.40
2023-03-31T10:59:52.449Z,6.40
2023-03-31T11:05:03.216Z,6.20
2023-03-31T11:10:29.584Z,6.30
2023-03-31T11:15:46.675Z,6.20
2023-03-31T11:21:20.763Z,6.50
2023-03-31T11:26:29.856Z,6.70
2023-03-31T11:31:36.826Z,6.50
2023-03-31T11:37:09.099Z,6.70
2023-03-31T11:42:24.596Z,6.50
2023-03-31T11:47:31.824Z,6.40
2023-03-31T11:52:37.757Z,6.50
2023-03-31T11:57:53.815Z,6.60
2023-03-31T12:03:23.721Z,6.80
2023-03-31T12:08:35.612Z,6.70
2023-03-31T12:13:45.565Z,6.80
2023-03-31T12:19:12.442Z,6.40
2023-03-31T12:24:14.705Z,6.50
2023-03-31T12:29:25.893Z,6.60
2023-03-31T12:34:29.630Z,6.40
2023-03-31T12:39:49.619Z,6.40
2023-03-31T12:45:02.483Z,6.20
2023-03-31T12:50:18.400Z,6.30
2023-03-31T12:55:43.793Z,6.30
2023-03-31T13:01:11.353Z,6.30
2023-03-31T13:06:25.963Z,6.40
2023-03-31T13:11:34.112Z,6.40
2023-03-31T13:16:36.856Z,6.40
2023-03-31T13:21:54.938Z,6.40
2023-03-31T13:26:59.238Z,6.40
2023-03-31T13:32:01.081Z,6.30
2023-03-31T13:37:34.142Z,6.40
2023-03-31T13:43:13.728Z,6.20
2023-03-31T13:48:39.984Z,6.30
2023-03-31T13:54:10.162Z,6.30
2023-03-31T13:59:59.489Z,6.30
2023-03-31T14:05:19.076Z,6.30
2023-03-31T14:10:31.084Z,6.30
2023-03-31T14:15:35.502Z,6.20
2023-03-31T14:20:57.476Z,6.30
2023-03-31T14:26:30.468Z,6.20
2023-03-31T14:31:44.076Z,6.20
2023-03-31T14:36:57.898Z,6.20
2023-03-31T14:42:05.849Z,6.30
2023-03-31T14:47:20.283Z,6.30
2023-03-31T14:52:25.313Z,6.40
2023-03-31T14:57:35.411Z,6.30
2023-03-31T15:02:47.080Z,6.30
2023-03-31T15:07:49.587Z,6.30
2023-03-31T15:12:51.829Z,6.20
2023-03-31T15:17:55.153Z,6.20
2023-03-31T15:22:58.497Z,6.10
2023-03-31T15:28:07.389Z,6.10
2023-03-31T15:33:20.455Z,6.00
2023-03-31T15:38:25.362Z,6.10
2023-03-31T15:43:32.304Z,6.10
2023-03-31T15:48:49.117Z,6.00
2023-03-31T15:53:56.312Z,6.00
2023-03-31T15:59:00.841Z,6.00
2023-03-31T16:04:07.836Z,5.90
2023-03-31T16:09:14.239Z,5.90
2023-03-31T16:14:37.627Z,5.80
2023-03-31T16:19:49.389Z,5.70
2023-03-31T16:24:51.842Z,5.70
2023-03-31T16:30:10.511Z,5.60
2023-03-31T16:35:12.205Z,5.60
2023-03-31T16:40:14.035Z,5.50
2023-03-31T16:45:16.468Z,5.40
2023-03-31T16:50:18.213Z,5.50
2023-03-31T16:55:19.957Z,5.50
2023-03-31T17:00:21.845Z,5.50
2023-03-31T17:05:24.015Z,5.50
2023-03-31T17:10:26.271Z,5.50
2023-03-31T17:15:29.774Z,5.40
2023-03-31T17:20:33.057Z,5.40
2023-03-31T17:25:36.174Z,5.40
2023-03-31T17:30:39.122Z,5.40
2023-03-31T17:35:41.534Z,5.30
2023-03-31T17:40:43.308Z,5.30
2023-03-31T17:45:45.023Z,5.40
2023-03-31T17:50:47.163Z,5.40
2023-03-31T17:55:48.898Z,5.30
2023-03-31T18:00:52.140Z,5.40
2023-03-31T18:05:53.882Z,5.30
2023-03-31T18:10:55.642Z,5.30
2023-03-31T18:15:57.761Z,5.30
2023-03-31T18:21:04.304Z,5.30
2023-03-31T18:26:07.549Z,5.30
2023-03-31T18:31:10.822Z,5.30
2023-03-31T18:36:20.421Z,5.30
2023-03-31T18:41:23.147Z,5.30
2023-03-31T18:46:24.912Z,5.30
2023-03-31T18:51:26.624Z,5.20
2023-03-31T18:56:28.427Z,5.30
2023-03-31T19:01:32.346Z,5.30
2023-03-31T19:06:34.673Z,5.20
2023-03-31T19:11:37.700Z,5.10
2023-03-31T19:16:42.571Z,5.20
2023-03-31T19:21:45.058Z,5.20
2023-03-31T19:26:47.657Z,5.20
2023-03-31T19:31:49.820Z,5.20
2023-03-31T19:36:51.686Z,5.20
2023-03-31T19:41:53.402Z,5.10
2023-03-31T19:46:55.480Z,5.10
2023-03-31T19:51:57.425Z,5.10
2023-03-31T19:56:59.478Z,5.10
2023-03-31T20:02:04.594Z,5.10
2023-03-31T20:07:06.506Z,5.00
2023-03-31T20:12:08.215Z,5.00
2023-03-31T20:17:11.765Z,5.00
2023-03-31T20:22:13.704Z,5.00
2023-03-31T20:27:15.888Z,5.00
2023-03-31T20:32:17.717Z,4.90
2023-03-31T20:37:19.581Z,5.00
2023-03-31T20:42:21.416Z,5.00
2023-03-31T20:47:23.165Z,5.00
2023-03-31T20:52:25.029Z,5.00
2023-03-31T20:57:27.287Z,5.00
2023-03-31T21:02:29.263Z,5.00
2023-03-31T21:07:31.752Z,5.00
2023-03-31T21:12:33.753Z,5.10
2023-03-31T21:17:35.709Z,5.10
2023-03-31T21:22:37.695Z,5.00
2023-03-31T21:27:39.482Z,5.10
2023-03-31T21:32:41.379Z,5.10
2023-03-31T21:37:43.124Z,5.10
2023-03-31T21:42:44.916Z,5.00
2023-03-31T21:47:48.736Z,5.10
2023-03-31T21:52:50.650Z,5.00
2023-03-31T21:57:52.998Z,5.10
2023-03-31T22:03:06.280Z,5.00
2023-03-31T22:08:12.850Z,5.10
2023-03-31T22:13:14.754Z,5.00
2023-03-31T22:18:17.498Z,5.00
2023-03-31T22:23:21.294Z,5.00
2023-03-31T22:28:23.110Z,5.00
2023-03-31T22:33:25.048Z,5.00
2023-03-31T22:38:26.857Z,5.00
2023-03-31T22:43:29.067Z,4.90
2023-03-31T22:48:31.110Z,4.90
2023-03-31T22:53:33.467Z,4.90
2023-03-31T22:58:35.326Z,4.80
2023-03-31T23:03:37.361Z,4.80
2023-03-31T23:08:40.256Z,4.80
2023-03-31T23:13:42.033Z,4.70
2023-03-31T23:18:47.617Z,4.70
2023-03-31T23:23:58.715Z,4.70
2023-03-31T23:29:00.688Z,4.70
2023-03-31T23:34:02.551Z,4.60
2023-03-31T23:39:06.613Z,4.60
2023-03-31T23:44:08.334Z,4.60
2023-03-31T23:49:10.762Z,4.60
2023-03-31T23:54:12.727Z,4.60
2023-03-31T23:59:14.866Z,4.50
